Time;durP1;ratioP1;P1;durP2;ratioP2;P2;SDS_P1;SDS_P2;PMS_P1;PMS_P2;Temp;Humidity;BMP_temperature;BMP_pressure;BME280_temperature;BME280_humidity;BME280_pressure;Samples;Min_cycle;Max_cycle;Signal;HPM_P1;HPM_P2
2022/07/20 04:45:46;;;;;;;10.75;4.35;;;;;;;19.17;84.03;100480.36;1703421;83;21098;-43
2022/07/20 04:48:12;;;;;;;5.80;4.50;;;;;;;19.18;83.82;100475.47;1728392;82;21050;-43
2022/07/20 04:50:40;;;;;;;6.42;3.87;;;;;;;19.26;83.50;100479.21;1730808;83;21066;-43
2022/07/20 04:53:06;;;;;;;5.67;4.12;;;;;;;19.31;83.27;100474.63;1723607;81;21547;-52
2022/07/20 04:55:33;;;;;;;5.87;4.67;;;;;;;19.39;83.71;100479.20;1735943;81;21019;-43
2022/07/20 04:58:01;;;;;;;5.12;3.98;;;;;;;19.48;83.21;100478.91;1736028;80;21903;-53
2022/07/20 05:00:28;;;;;;;4.58;4.03;;;;;;;19.58;82.91;100476.79;1760875;81;21578;-43
2022/07/20 05:02:55;;;;;;;7.53;4.10;;;;;;;19.69;82.48;100479.98;1715730;81;21006;-53
2022/07/20 05:05:21;;;;;;;7.50;4.00;;;;;;;19.78;82.06;100470.84;1754081;81;21359;-53
2022/07/20 05:07:48;;;;;;;5.95;3.55;;;;;;;19.84;81.39;100469.30;1726778;82;21053;-43
2022/07/20 05:10:15;;;;;;;3.80;3.42;;;;;;;19.87;81.32;100469.17;1701823;83;21022;-53
2022/07/20 05:12:43;;;;;;;6.58;3.80;;;;;;;19.95;81.37;100476.42;1694874;83;21477;-43
2022/07/20 05:15:10;;;;;;;5.30;3.92;;;;;;;20.03;80.86;100471.69;1689740;81;21093;-44
2022/07/20 05:17:37;;;;;;;4.35;3.58;;;;;;;20.08;80.25;100467.09;1719718;82;21000;-44
2022/07/20 05:20:07;;;;;;;4.83;3.80;;;;;;;20.12;80.63;100467.82;1714761;83;21043;-53
2022/07/20 05:22:34;;;;;;;11.78;4.78;;;;;;;20.17;80.41;100462.74;1719884;82;21043;-53
2022/07/20 05:25:01;;;;;;;11.08;4.40;;;;;;;20.23;80.16;100475.40;1710413;84;21106;-47
2022/07/20 05:27:27;;;;;;;5.75;3.83;;;;;;;20.30;80.12;100476.47;1710579;84;21031;-43
2022/07/20 05:29:54;;;;;;;7.92;4.40;;;;;;;20.36;80.10;100469.59;1724453;83;21531;-53
2022/07/20 05:32:20;;;;;;;10.65;4.55;;;;;;;20.41;79.73;100457.47;1715632;83;21625;-43
2022/07/20 05:34:47;;;;;;;6.62;4.60;;;;;;;20.47;79.51;100462.58;1725717;82;21113;-44
2022/07/20 05:37:13;;;;;;;6.53;3.87;;;;;;;20.56;79.70;100467.98;1714712;83;21468;-52
2022/07/20 05:39:41;;;;;;;5.42;4.15;;;;;;;20.68;79.08;100471.50;1726859;81;21050;-53
2022/07/20 05:42:08;;;;;;;5.85;4.20;;;;;;;20.83;78.33;100468.72;1727276;83;21305;-53
2022/07/20 05:44:34;;;;;;;9.38;4.00;;;;;;;20.99;77.83;100464.53;1728998;82;21629;-53
2022/07/20 05:47:02;;;;;;;7.53;4.20;;;;;;;21.09;76.20;100466.33;1668418;85;21654;-53
2022/07/20 05:49:29;;;;;;;8.03;3.50;;;;;;;21.17;75.23;100453.60;1679609;85;21066;-44
2022/07/20 05:51:55;;;;;;;5.45;3.37;;;;;;;21.25;74.77;100455.00;1682014;84;21486;-44
2022/07/20 05:54:22;;;;;;;6.87;3.90;;;;;;;21.34;74.09;100450.24;1681871;85;21629;-53
2022/07/20 05:56:48;;;;;;;14.50;4.97;;;;;;;21.43;74.07;100449.88;1727176;82;21513;-45
2022/07/20 05:59:15;;;;;;;5.20;3.85;;;;;;;21.54;74.21;100438.30;1754342;82;21653;-53
2022/07/20 06:01:44;;;;;;;9.35;4.62;;;;;;;21.62;73.03;100431.30;1756649;80;21041;-44
2022/07/20 06:04:12;;;;;;;6.10;4.72;;;;;;;21.71;72.72;100425.12;1782104;80;21538;-53
2022/07/20 06:06:39;;;;;;;5.87;3.92;;;;;;;21.80;72.16;100422.50;1778077;81;21612;-44
2022/07/20 06:09:07;;;;;;;6.53;4.03;;;;;;;21.86;71.62;100426.26;1711724;83;21089;-53
2022/07/20 06:11:36;;;;;;;5.50;3.85;;;;;;;21.88;70.69;100420.86;1772751;81;21652;-53
2022/07/20 06:14:02;;;;;;;6.65;3.70;;;;;;;21.88;70.26;100429.71;1754134;82;21070;-43
2022/07/20 06:16:29;;;;;;;4.87;4.15;;;;;;;21.91;69.58;100422.03;1754022;82;21050;-44
2022/07/20 06:18:56;;;;;;;5.00;4.08;;;;;;;21.93;69.30;100417.05;1754283;82;21094;-53
2022/07/20 06:21:24;;;;;;;4.45;3.67;;;;;;;22.01;69.43;100412.70;1754864;80;21567;-43
2022/07/20 06:23:51;;;;;;;8.00;3.90;;;;;;;22.12;68.87;100414.45;1729382;80;21604;-44
2022/07/20 06:26:17;;;;;;;5.62;4.22;;;;;;;22.20;67.86;100411.42;1746519;80;21077;-53
2022/07/20 06:28:44;;;;;;;5.90;3.75;;;;;;;22.20;67.54;100418.94;1746819;81;21108;-53
2022/07/20 06:31:11;;;;;;;4.30;3.10;;;;;;;22.25;67.79;100421.41;1768946;80;21114;-54
2022/07/20 06:33:39;;;;;;;4.97;3.27;;;;;;;22.33;65.74;100417.94;1735893;81;21457;-44
2022/07/20 06:36:08;;;;;;;4.28;3.47;;;;;;;22.36;65.74;100404.92;1730046;81;20980;-53
2022/07/20 06:38:35;;;;;;;33.33;7.00;;;;;;;22.39;66.54;100407.45;1746494;80;21040;-53
2022/07/20 06:41:03;;;;;;;12.73;4.08;;;;;;;22.41;66.30;100407.77;1738040;80;21030;-43
2022/07/20 06:43:30;;;;;;;6.83;3.83;;;;;;;22.40;65.64;100410.04;1741054;80;21026;-43
2022/07/20 06:45:57;;;;;;;5.67;3.00;;;;;;;22.37;65.47;100408.84;1763960;80;20961;-52
2022/07/20 06:48:25;;;;;;;3.52;3.20;;;;;;;22.37;65.24;100404.84;1775751;80;21617;-52
2022/07/20 06:50:51;;;;;;;7.78;4.15;;;;;;;22.30;64.95;100401.59;1693835;84;20987;-52
2022/07/20 06:53:18;;;;;;;3.62;3.12;;;;;;;22.22;65.20;100397.11;1736471;80;21037;-53
2022/07/20 06:55:45;;;;;;;5.47;3.17;;;;;;;22.24;65.22;100399.22;1727195;81;20954;-52
2022/07/20 06:58:12;;;;;;;4.50;3.45;;;;;;;22.25;64.58;100391.62;1732608;81;21070;-52
2022/07/20 07:00:38;;;;;;;4.08;3.15;;;;;;;22.25;64.27;100395.61;1674526;84;21056;-52
2022/07/20 07:03:05;;;;;;;3.58;3.27;;;;;;;22.22;64.42;100398.44;1695961;84;21102;-42
2022/07/20 07:05:33;;;;;;;5.97;3.15;;;;;;;22.28;65.26;100399.95;1681425;83;21507;-49
2022/07/20 07:08:00;;;;;;;3.75;3.35;;;;;;;22.36;64.60;100396.92;1745509;81;21036;-43
2022/07/20 07:10:27;;;;;;;7.37;3.60;;;;;;;22.44;64.78;100401.41;1717889;82;20982;-43
2022/07/20 07:12:53;;;;;;;5.95;3.40;;;;;;;22.57;64.59;100387.91;1714611;81;21505;-42
2022/07/20 07:15:20;;;;;;;4.12;3.05;;;;;;;22.61;63.84;100387.28;1734720;81;21021;-43
2022/07/20 07:17:47;;;;;;;3.62;2.75;;;;;;;22.64;63.81;100380.48;1737997;81;21044;-52
2022/07/20 07:20:14;;;;;;;3.25;2.62;;;;;;;22.74;64.02;100381.77;1731246;81;20966;-53
2022/07/20 07:22:41;;;;;;;4.87;2.87;;;;;;;22.85;62.93;100378.11;1723078;81;21584;-52
2022/07/20 07:25:09;;;;;;;4.55;2.85;;;;;;;22.88;62.60;100378.44;1726448;81;21001;-43
2022/07/20 07:27:36;;;;;;;6.72;2.85;;;;;;;22.76;62.40;100380.73;1722113;82;20990;-52
2022/07/20 07:30:04;;;;;;;3.00;2.60;;;;;;;22.73;62.62;100380.91;1725997;82;21005;-52
2022/07/20 07:32:31;;;;;;;3.15;2.70;;;;;;;22.82;61.56;100369.77;1724928;81;21651;-52
2022/07/20 07:34:57;;;;;;;4.15;2.72;;;;;;;22.95;61.34;100370.05;1729587;81;20998;-43
2022/07/20 07:37:24;;;;;;;5.95;2.98;;;;;;;23.05;61.52;100379.33;1731702;81;21192;-52
2022/07/20 07:39:50;;;;;;;7.85;3.00;;;;;;;23.04;61.18;100371.41;1726827;81;21053;-52
2022/07/20 07:42:17;;;;;;;3.15;2.47;;;;;;;22.96;61.57;100364.24;1726298;81;21045;-52
2022/07/20 07:44:44;;;;;;;4.35;2.62;;;;;;;22.86;60.58;100372.30;1718908;81;21401;-52
2022/07/20 07:47:11;;;;;;;3.12;2.27;;;;;;;22.74;60.10;100375.10;1724010;81;21056;-52
2022/07/20 07:49:39;;;;;;;4.60;2.85;;;;;;;22.74;60.69;100372.44;1724905;81;21607;-53
2022/07/20 07:52:05;;;;;;;3.42;2.50;;;;;;;22.88;61.40;100372.64;1725839;80;20963;-52
2022/07/20 07:54:32;;;;;;;5.20;2.35;;;;;;;23.05;61.07;100365.98;1735110;81;21534;-52
2022/07/20 07:56:59;;;;;;;8.70;2.58;;;;;;;23.15;58.91;100363.73;1728598;82;20990;-52
2022/07/20 07:59:25;;;;;;;4.42;2.70;;;;;;;23.14;59.23;100370.02;1733268;80;21016;-53
2022/07/20 08:01:52;;;;;;;6.83;2.95;;;;;;;23.17;58.51;100360.50;1677272;84;21493;-53
2022/07/20 08:04:19;;;;;;;3.12;2.42;;;;;;;23.32;58.70;100361.05;1723588;81;21075;-52
2022/07/20 08:06:47;;;;;;;5.05;2.20;;;;;;;23.51;57.31;100345.41;1734208;80;20989;-53
2022/07/20 08:09:13;;;;;;;4.67;2.25;;;;;;;23.70;57.77;100348.84;1728746;80;21124;-53
2022/07/20 08:11:40;;;;;;;2.40;2.20;;;;;;;23.89;56.79;100348.75;1734358;80;20978;-52
2022/07/20 08:14:07;;;;;;;2.40;2.20;;;;;;;23.99;56.31;100352.62;1728397;82;21049;-52
2022/07/20 08:16:34;;;;;;;4.08;2.20;;;;;;;24.03;56.22;100337.30;1726880;81;21001;-52
2022/07/20 08:19:00;;;;;;;2.67;2.40;;;;;;;24.09;55.60;100339.63;1727921;81;21054;-52
2022/07/20 08:21:27;;;;;;;3.35;2.45;;;;;;;24.07;55.20;100329.51;1729175;81;20982;-53
2022/07/20 08:23:55;;;;;;;9.65;2.92;;;;;;;24.00;54.78;100324.09;1730211;81;21082;-53
2022/07/20 08:26:21;;;;;;;4.78;2.30;;;;;;;23.96;55.38;100312.73;1729686;82;21404;-52
2022/07/20 08:28:48;;;;;;;6.37;2.35;;;;;;;24.09;55.94;100319.58;1726305;80;21049;-53
2022/07/20 08:31:15;;;;;;;2.90;2.62;;;;;;;24.26;55.24;100313.30;1726705;81;20970;-53
2022/07/20 08:33:41;;;;;;;4.42;2.00;;;;;;;24.35;54.26;100314.13;1730977;81;21499;-52
2022/07/20 08:36:08;;;;;;;2.85;1.85;;;;;;;24.34;53.47;100304.36;1729866;81;21034;-53
2022/07/20 08:38:35;;;;;;;5.35;2.45;;;;;;;24.39;54.17;100304.99;1725658;82;20986;-53
2022/07/20 08:41:02;;;;;;;3.00;2.15;;;;;;;24.49;54.85;100303.53;1665898;85;21018;-52
2022/07/20 08:43:29;;;;;;;3.40;2.58;;;;;;;24.64;53.68;100303.09;1731322;80;21081;-52
2022/07/20 08:45:56;;;;;;;2.77;2.52;;;;;;;24.67;53.38;100291.76;1671789;85;21042;-52
2022/07/20 08:48:23;;;;;;;6.35;2.10;;;;;;;24.69;52.75;100288.50;1730372;80;21546;-52
2022/07/20 08:50:49;;;;;;;2.52;2.22;;;;;;;24.62;52.25;100286.29;1669087;84;21042;-52
2022/07/20 08:53:17;;;;;;;2.45;1.92;;;;;;;24.50;52.12;100285.67;1724459;80;21134;-52
2022/07/20 08:55:44;;;;;;;6.12;2.30;;;;;;;24.43;52.23;100266.93;1728229;80;21510;-52
2022/07/20 08:58:13;;;;;;;1.98;1.85;;;;;;;24.43;52.23;100266.93;1729773;81;21043;-52
2022/07/20 09:00:39;;;;;;;2.58;2.22;;;;;;;24.53;52.37;100267.64;1732208;80;21604;-52
2022/07/20 09:03:07;;;;;;;1.60;1.50;;;;;;;24.66;52.08;100257.95;1727961;81;20958;-52
2022/07/20 09:05:38;;;;;;;4.47;2.60;;;;;;;24.77;52.01;100249.77;1727418;82;21116;-52
2022/07/20 09:08:07;;;;;;;2.45;1.62;;;;;;;24.82;51.11;100253.89;1731368;81;20967;-52
2022/07/20 09:10:36;;;;;;;1.95;1.60;;;;;;;24.86;50.80;100266.59;1707554;82;21500;-52
2022/07/20 09:13:06;;;;;;;1.75;1.65;;;;;;;24.96;50.15;100257.06;1738077;80;21018;-52
2022/07/20 09:15:42;;;;;;;3.80;2.20;;;;;;;25.13;49.30;100244.89;1726589;82;21007;-52
2022/07/20 09:18:22;;;;;;;3.35;2.00;;;;;;;25.20;49.40;100248.91;1728975;81;21032;-52
2022/07/20 09:20:59;;;;;;;4.03;1.85;;;;;;;25.30;49.49;100246.54;1723476;82;21013;-52
2022/07/20 09:23:31;;;;;;;1.85;1.67;;;;;;;25.44;48.78;100240.31;1729241;81;21450;-53
2022/07/20 09:26:03;;;;;;;3.45;1.62;;;;;;;25.54;46.27;100236.11;1727704;82;20999;-52
2022/07/20 09:28:44;;;;;;;2.08;1.40;;;;;;;25.52;45.45;100234.50;1671915;84;21568;-53
2022/07/20 09:31:22;;;;;;;2.65;1.80;;;;;;;25.41;46.59;100233.34;1734462;80;21006;-53
2022/07/20 09:34:17;;;;;;;3.90;1.75;;;;;;;25.35;47.58;100234.21;1668703;85;21027;-53
2022/07/20 09:36:46;;;;;;;2.33;1.40;;;;;;;25.39;46.43;100229.88;1684621;81;21021;-53
2022/07/20 09:39:14;;;;;;;;;;;;;;;25.42;45.47;100228.85;1738963;81;21054;-52
2022/07/20 09:41:43;;;;;;;3.10;1.62;;;;;;;25.42;45.82;100219.00;1730268;82;20378;-53
2022/07/20 09:44:27;;;;;;;1.70;1.52;;;;;;;25.44;46.38;100221.09;1676634;84;21114;-53
2022/07/20 09:46:54;;;;;;;3.33;1.50;;;;;;;25.43;47.00;100215.84;1730766;82;20962;-52
2022/07/20 09:49:21;;;;;;;4.65;1.52;;;;;;;25.48;45.56;100213.73;1733944;82;21066;-53
2022/07/20 09:51:59;;;;;;;1.80;1.57;;;;;;;25.50;45.26;100213.15;1715661;82;20985;-52
2022/07/20 09:54:26;;;;;;;1.52;1.27;;;;;;;25.53;46.34;100209.44;1729302;81;21039;-53
2022/07/20 09:56:52;;;;;;;1.50;1.37;;;;;;;25.64;45.88;100198.41;1737234;81;20968;-53
2022/07/20 09:59:19;;;;;;;3.10;1.62;;;;;;;25.68;45.56;100207.09;1735320;82;21074;-53
2022/07/20 10:01:52;;;;;;;2.02;1.32;;;;;;;25.68;45.45;100190.55;1733015;81;21021;-53
2022/07/20 10:04:19;;;;;;;3.47;1.50;;;;;;;25.72;46.08;100189.87;1736369;81;21058;-53
2022/07/20 10:06:48;;;;;;;6.72;1.75;;;;;;;25.72;46.33;100187.20;1733261;81;21002;-53
2022/07/20 10:09:15;;;;;;;5.58;1.30;;;;;;;25.69;46.33;100189.61;1673256;84;21145;-53
2022/07/20 10:11:44;;;;;;;2.40;1.50;;;;;;;25.72;44.24;100184.52;1736573;81;21014;-53
2022/07/20 10:14:11;;;;;;;7.87;1.22;;;;;;;25.70;44.72;100177.08;1736706;82;21125;-53
2022/07/20 10:16:49;;;;;;;1.98;1.17;;;;;;;25.67;46.74;100178.59;1737260;81;21506;-53
2022/07/20 10:19:15;;;;;;;7.55;1.15;;;;;;;25.72;45.73;100182.70;1737167;82;21051;-52
2022/07/20 10:21:47;;;;;;;4.45;1.45;;;;;;;25.84;45.64;100169.50;1672210;85;21080;-52
2022/07/20 10:24:34;;;;;;;2.52;1.95;;;;;;;25.99;45.46;100167.17;1734263;82;21098;-52
2022/07/20 10:27:24;;;;;;;1.77;1.20;;;;;;;26.11;44.71;100170.38;1735255;81;21522;-51
2022/07/20 10:29:53;;;;;;;1.42;1.10;;;;;;;26.15;42.86;100157.61;1736349;82;21030;-52
2022/07/20 10:32:25;;;;;;;2.35;1.30;;;;;;;26.05;43.79;100154.70;1733803;82;20991;-52
2022/07/20 10:34:59;;;;;;;2.33;1.00;;;;;;;26.03;44.41;100156.59;1735163;82;21571;-52
2022/07/20 10:37:44;;;;;;;3.35;0.93;;;;;;;26.13;43.95;100152.84;1733499;81;20976;-52
2022/07/20 10:40:17;;;;;;;1.42;1.32;;;;;;;26.32;42.85;100150.62;1736693;81;22004;-51
2022/07/20 10:42:50;;;;;;;2.30;1.50;;;;;;;26.53;42.56;100138.48;1731623;82;20989;-52
2022/07/20 10:45:23;;;;;;;2.40;1.40;;;;;;;26.81;42.75;100155.36;1738303;81;21454;-52
2022/07/20 10:47:59;;;;;;;2.15;1.30;;;;;;;26.98;41.92;100144.79;1734110;82;21039;-52
2022/07/20 10:50:36;;;;;;;1.35;1.17;;;;;;;27.00;41.73;100132.11;1736564;81;21096;-52
2022/07/20 10:53:17;;;;;;;2.27;1.00;;;;;;;27.02;41.83;100120.77;1737253;82;21014;-53
2022/07/20 10:55:58;;;;;;;1.17;1.10;;;;;;;27.01;41.34;100121.25;1734094;82;21042;-52
2022/07/20 10:58:29;;;;;;;1.27;1.10;;;;;;;27.07;41.28;100112.42;1733402;81;21057;-52
2022/07/20 11:01:06;;;;;;;0.90;0.90;;;;;;;27.16;41.38;100109.95;1675316;84;21553;-52
2022/07/20 11:03:42;;;;;;;2.77;1.20;;;;;;;27.24;40.24;100113.41;1730462;81;21088;-52
2022/07/20 11:06:20;;;;;;;5.70;1.52;;;;;;;27.27;40.90;100108.70;1732091;81;21589;-52
2022/07/20 11:08:55;;;;;;;1.75;1.17;;;;;;;27.32;40.78;100097.63;1732563;81;21051;-53
2022/07/20 11:11:26;;;;;;;2.50;1.22;;;;;;;27.30;40.14;100088.80;1728942;82;21504;-53
2022/07/20 11:13:53;;;;;;;1.62;1.27;;;;;;;27.23;40.74;100099.13;1730975;82;21521;-53
2022/07/20 11:16:22;;;;;;;3.40;1.27;;;;;;;27.23;40.44;100094.25;1736268;81;21045;-53
2022/07/20 11:18:50;;;;;;;4.72;1.57;;;;;;;27.22;40.75;100085.83;1728565;82;21034;-53
2022/07/20 11:21:17;;;;;;;2.08;1.30;;;;;;;27.25;40.68;100084.24;1733444;82;21026;-53
2022/07/20 11:23:49;;;;;;;2.47;1.30;;;;;;;27.27;40.46;100089.04;1737312;81;21003;-53
2022/07/20 11:26:19;;;;;;;1.72;1.30;;;;;;;27.25;40.97;100086.92;1740948;82;21010;-53
2022/07/20 11:28:52;;;;;;;2.55;1.30;;;;;;;27.16;40.18;100083.59;1737847;81;21086;-52
2022/07/20 11:31:23;;;;;;;2.90;1.30;;;;;;;27.11;41.57;100077.69;1721383;82;20999;-53
2022/07/20 11:33:52;;;;;;;5.53;1.40;;;;;;;27.13;40.13;100066.34;1670549;85;21118;-53
2022/07/20 11:36:22;;;;;;;2.77;1.50;;;;;;;27.13;40.33;100060.97;1736350;82;21083;-53
2022/07/20 11:38:53;;;;;;;3.17;1.25;;;;;;;27.13;40.96;100055.60;1737979;82;21062;-53
2022/07/20 11:41:22;;;;;;;3.60;1.45;;;;;;;27.05;38.81;100046.25;1720985;81;21129;-53
2022/07/20 11:43:50;;;;;;;3.80;1.75;;;;;;;26.98;40.65;100048.16;1735038;82;21015;-53
2022/07/20 11:46:22;;;;;;;2.20;1.40;;;;;;;26.98;40.46;100049.50;1729623;81;22028;-53
2022/07/20 11:48:56;;;;;;;1.57;1.42;;;;;;;26.97;40.82;100045.11;1737471;81;21033;-53
2022/07/20 11:51:22;;;;;;;1.45;1.35;;;;;;;26.99;41.42;100044.02;1732908;82;21607;-53
2022/07/20 11:53:50;;;;;;;1.87;1.40;;;;;;;27.07;41.11;100054.22;1736224;82;21014;-53
2022/07/20 11:56:24;;;;;;;4.50;1.67;;;;;;;27.14;40.58;100050.14;1732064;81;21557;-53
2022/07/20 11:58:52;;;;;;;1.98;1.57;;;;;;;27.19;39.98;100044.41;1736032;81;21085;-53
2022/07/20 12:01:27;;;;;;;2.52;1.60;;;;;;;27.15;39.92;100042.95;1735926;82;21033;-53
2022/07/20 12:04:04;;;;;;;2.22;1.80;;;;;;;27.07;40.32;100036.77;1721953;81;21017;-44
2022/07/20 12:06:33;;;;;;;3.60;1.62;;;;;;;27.10;39.93;100045.11;1739637;81;21549;-43
2022/07/20 12:09:13;;;;;;;1.82;1.50;;;;;;;27.03;40.21;100033.92;1673318;84;21102;-43
2022/07/20 12:12:07;;;;;;;3.90;1.90;;;;;;;26.89;40.65;100032.22;1735590;81;20994;-52
2022/07/20 12:14:38;;;;;;;6.80;1.52;;;;;;;26.74;41.32;100019.43;1730935;82;21038;-53
2022/07/20 12:17:20;;;;;;;3.15;1.60;;;;;;;26.55;41.85;100014.13;1740277;80;20938;-44
2022/07/20 12:19:50;;;;;;;9.00;2.45;;;;;;;26.52;41.55;100017.41;1679256;85;21576;-53
2022/07/20 12:22:22;;;;;;;8.13;1.90;;;;;;;26.61;41.50;100006.98;1737106;81;21044;-43
2022/07/20 12:24:55;;;;;;;4.78;2.02;;;;;;;26.71;42.63;100009.39;1731054;82;21030;-53
2022/07/20 12:27:25;;;;;;;3.42;1.98;;;;;;;26.82;41.84;100003.26;1738817;81;20942;-42
2022/07/20 12:29:52;;;;;;;2.58;1.70;;;;;;;26.90;41.04;99999.03;1722947;82;21053;-44
2022/07/20 12:32:36;;;;;;;6.78;2.17;;;;;;;26.93;40.78;100000.66;1715116;83;21557;-44
